createdAt,value
2023-01-11T00:00:32.343Z,1010.74
2023-01-11T00:01:32.351Z,1010.70
2023-01-11T00:02:32.360Z,1010.73
2023-01-11T00:03:32.338Z,1010.70
2023-01-11T00:04:32.338Z,1010.71
2023-01-11T00:05:32.271Z,1010.76
2023-01-11T00:06:32.343Z,1010.71
2023-01-11T00:07:32.372Z,1010.72
2023-01-11T00:08:32.258Z,1010.68
2023-01-11T00:09:32.275Z,1010.70
2023-01-11T00:10:32.216Z,1010.69
2023-01-11T00:11:32.244Z,1010.64
2023-01-11T00:12:32.206Z,1010.66
2023-01-11T00:13:32.208Z,1010.62
2023-01-11T00:14:32.189Z,1010.59
2023-01-11T00:15:32.214Z,1010.59
2023-01-11T00:16:32.223Z,1010.59
2023-01-11T00:17:32.185Z,1010.58
2023-01-11T00:18:32.150Z,1010.59
2023-01-11T00:19:32.129Z,1010.56
2023-01-11T00:20:32.153Z,1010.56
2023-01-11T00:21:32.211Z,1010.57
2023-01-11T00:22:32.092Z,1010.52
2023-01-11T00:23:32.129Z,1010.50
2023-01-11T00:24:32.104Z,1010.52
2023-01-11T00:25:32.118Z,1010.55
2023-01-11T00:26:32.116Z,1010.53
2023-01-11T00:27:32.081Z,1010.53
2023-01-11T00:28:32.049Z,1010.53
2023-01-11T00:29:32.031Z,1010.54
2023-01-11T00:30:32.030Z,1010.56
2023-01-11T00:31:32.095Z,1010.52
2023-01-11T00:32:32.032Z,1010.53
2023-01-11T00:33:32.012Z,1010.52
2023-01-11T00:34:31.980Z,1010.49
2023-01-11T00:35:31.972Z,1010.50
2023-01-11T00:36:31.984Z,1010.43
2023-01-11T00:37:32.173Z,1010.47
2023-01-11T00:38:32.067Z,1010.48
2023-01-11T00:39:31.945Z,1010.40
2023-01-11T00:40:31.974Z,1010.40
2023-01-11T00:41:31.948Z,1010.42
2023-01-11T00:42:31.919Z,1010.42
2023-01-11T00:43:31.896Z,1010.41
2023-01-11T00:44:31.885Z,1010.40
2023-01-11T00:45:31.870Z,1010.38
2023-01-11T00:46:31.915Z,1010.37
2023-01-11T00:47:31.851Z,1010.33
2023-01-11T00:48:31.822Z,1010.26
2023-01-11T00:49:31.821Z,1010.24
2023-01-11T00:50:31.833Z,1010.30
2023-01-11T00:51:31.943Z,1010.24
2023-01-11T00:52:31.827Z,1010.25
2023-01-11T00:53:31.784Z,1010.23
2023-01-11T00:54:31.775Z,1010.21
2023-01-11T00:55:31.780Z,1010.24
2023-01-11T00:56:31.757Z,1010.19
2023-01-11T00:57:31.740Z,1010.14
2023-01-11T00:58:31.715Z,1010.14
2023-01-11T00:59:31.721Z,1010.09
2023-01-11T01:00:31.738Z,1010.12
2023-01-11T01:01:31.817Z,1010.11
2023-01-11T01:02:31.727Z,1010.11
2023-01-11T01:03:31.692Z,1010.11
2023-01-11T01:04:31.655Z,1010.08
2023-01-11T01:05:31.655Z,1010.12
2023-01-11T01:06:31.683Z,1010.10
2023-01-11T01:07:31.667Z,1010.09
2023-01-11T01:08:31.636Z,1010.06
2023-01-11T01:09:31.629Z,1010.05
2023-01-11T01:10:31.681Z,1010.02
2023-01-11T01:11:31.608Z,1010.01
2023-01-11T01:12:31.569Z,1010.00
2023-01-11T01:13:31.574Z,1010.02
2023-01-11T01:14:31.560Z,1009.96
2023-01-11T01:15:31.691Z,1009.95
2023-01-11T01:16:31.568Z,1009.92
2023-01-11T01:17:31.556Z,1009.91
2023-01-11T01:18:31.507Z,1009.90
2023-01-11T01:19:31.528Z,1009.89
2023-01-11T01:20:31.531Z,1009.90
2023-01-11T01:21:31.488Z,1009.88
2023-01-11T01:22:31.476Z,1009.92
2023-01-11T01:23:31.461Z,1009.89
2023-01-11T01:24:31.476Z,1009.91
2023-01-11T01:25:31.465Z,1009.91
2023-01-11T01:26:31.444Z,1009.82
2023-01-11T01:27:32.214Z,1009.91
2023-01-11T01:28:31.400Z,1009.90
2023-01-11T01:29:31.403Z,1009.89
2023-01-11T01:30:31.489Z,1009.87
2023-01-11T01:31:31.478Z,1009.83
2023-01-11T01:32:31.372Z,1009.81
2023-01-11T01:33:31.357Z,1009.79
2023-01-11T01:34:31.362Z,1009.78
2023-01-11T01:35:31.332Z,1009.72
2023-01-11T01:36:31.357Z,1009.78
2023-01-11T01:37:31.354Z,1009.73
2023-01-11T01:38:31.370Z,1009.74
2023-01-11T01:39:31.306Z,1009.75
2023-01-11T01:40:31.291Z,1009.70
2023-01-11T01:41:31.281Z,1009.70
2023-01-11T01:42:31.289Z,1009.68
2023-01-11T01:43:31.260Z,1009.62
2023-01-11T01:44:31.235Z,1009.64
2023-01-11T01:45:31.270Z,1009.66
2023-01-11T01:46:31.243Z,1009.65
2023-01-11T01:47:31.262Z,1009.65
2023-01-11T01:48:31.203Z,1009.63
2023-01-11T01:49:31.248Z,1009.63
2023-01-11T01:50:31.174Z,1009.63
2023-01-11T01:51:31.177Z,1009.65
2023-01-11T01:52:31.209Z,1009.63
2023-01-11T01:53:31.152Z,1009.65
2023-01-11T01:54:31.155Z,1009.61
2023-01-11T01:55:31.137Z,1009.56
2023-01-11T01:56:31.124Z,1009.57
2023-01-11T01:57:31.169Z,1009.50
2023-01-11T01:58:31.089Z,1009.51
2023-01-11T01:59:31.109Z,1009.49
2023-01-11T02:00:31.081Z,1009.44
2023-01-11T02:01:31.202Z,1009.47
2023-01-11T02:02:31.107Z,1009.43
2023-01-11T02:03:31.058Z,1009.46
2023-01-11T02:04:31.046Z,1009.45
2023-01-11T02:05:31.049Z,1009.39
2023-01-11T02:06:31.039Z,1009.38
2023-01-11T02:07:31.052Z,1009.39
2023-01-11T02:08:30.994Z,1009.38
2023-01-11T02:09:31.007Z,1009.34
2023-01-11T02:10:30.967Z,1009.32
2023-01-11T02:11:30.992Z,1009.31
2023-01-11T02:12:30.967Z,1009.27
2023-01-11T02:13:30.975Z,1009.22
2023-01-11T02:14:30.993Z,1009.22
2023-01-11T02:15:30.930Z,1009.14
2023-01-11T02:16:30.974Z,1009.10
2023-01-11T02:17:30.958Z,1009.07
2023-01-11T02:18:30.891Z,1009.08
2023-01-11T02:19:30.883Z,1009.05
2023-01-11T02:20:30.922Z,1009.01
2023-01-11T02:21:30.867Z,1009.03
2023-01-11T02:22:30.864Z,1009.02
2023-01-11T02:23:30.844Z,1008.99
2023-01-11T02:24:30.855Z,1009.01
2023-01-11T02:25:30.824Z,1008.97
2023-01-11T02:26:30.807Z,1008.88
2023-01-11T02:27:30.895Z,1008.80
2023-01-11T02:28:30.788Z,1008.88
2023-01-11T02:29:30.778Z,1008.85
2023-01-11T02:30:30.793Z,1008.89
2023-01-11T02:31:30.855Z,1008.84
2023-01-11T02:32:30.769Z,1008.85
2023-01-11T02:33:30.764Z,1008.85
2023-01-11T02:34:30.736Z,1008.80
2023-01-11T02:35:30.728Z,1008.78
2023-01-11T02:36:30.727Z,1008.72
2023-01-11T02:37:30.729Z,1008.70
2023-01-11T02:38:30.726Z,1008.74
2023-01-11T02:39:30.679Z,1008.73
2023-01-11T02:40:30.783Z,1008.72
2023-01-11T02:41:30.650Z,1008.65
2023-01-11T02:42:30.733Z,1008.66
2023-01-11T02:43:30.652Z,1008.59
2023-01-11T02:44:30.636Z,1008.57
2023-01-11T02:45:30.632Z,1008.53
2023-01-11T02:46:30.685Z,1008.56
2023-01-11T02:47:30.675Z,1008.57
2023-01-11T02:48:30.578Z,1008.59
2023-01-11T02:49:30.601Z,1008.56
2023-01-11T02:50:30.553Z,1008.58
2023-01-11T02:51:30.567Z,1008.52
2023-01-11T02:52:30.557Z,1008.52
2023-01-11T02:53:30.540Z,1008.46
2023-01-11T02:54:30.547Z,1008.43
2023-01-11T02:55:30.517Z,1008.47
2023-01-11T02:56:30.500Z,1008.54
2023-01-11T02:57:30.544Z,1008.48
2023-01-11T02:58:30.489Z,1008.46
2023-01-11T02:59:30.531Z,1008.50
2023-01-11T03:00:30.470Z,1008.54
2023-01-11T03:01:30.519Z,1008.52
2023-01-11T03:02:30.515Z,1008.50
2023-01-11T03:03:30.436Z,1008.49
2023-01-11T03:04:30.423Z,1008.41
2023-01-11T03:05:30.415Z,1008.41
2023-01-11T03:06:30.507Z,1008.43
2023-01-11T03:07:30.436Z,1008.42
2023-01-11T03:08:30.396Z,1008.33
2023-01-11T03:09:30.373Z,1008.38
2023-01-11T03:10:30.359Z,1008.34
2023-01-11T03:11:30.377Z,1008.33
2023-01-11T03:12:30.377Z,1008.35
2023-01-11T03:13:30.410Z,1008.36
2023-01-11T03:14:30.324Z,1008.29
2023-01-11T03:15:30.354Z,1008.28
2023-01-11T03:16:30.355Z,1008.28
2023-01-11T03:17:30.297Z,1008.34
2023-01-11T03:18:30.315Z,1008.29
2023-01-11T03:19:30.255Z,1008.30
2023-01-11T03:20:30.254Z,1008.30
2023-01-11T03:21:30.281Z,1008.23
2023-01-11T03:22:30.251Z,1008.18
2023-01-11T03:23:30.263Z,1008.17
2023-01-11T03:24:30.199Z,1008.14
2023-01-11T03:25:30.216Z,1008.13
2023-01-11T03:26:30.185Z,1008.13
2023-01-11T03:27:30.218Z,1008.11
2023-01-11T03:28:30.164Z,1008.09
2023-01-11T03:29:30.163Z,1008.08
2023-01-11T03:30:30.165Z,1008.08
2023-01-11T03:31:30.263Z,1008.02
2023-01-11T03:32:30.147Z,1008.00
2023-01-11T03:33:30.113Z,1007.99
2023-01-11T03:34:30.095Z,1007.97
2023-01-11T03:35:30.143Z,1008.02
2023-01-11T03:36:30.072Z,1008.05
2023-01-11T03:37:30.111Z,1008.04
2023-01-11T03:38:30.061Z,1008.05
2023-01-11T03:39:30.064Z,1008.01
2023-01-11T03:40:30.051Z,1008.01
2023-01-11T03:41:30.086Z,1007.99
2023-01-11T03:42:30.017Z,1007.93
2023-01-11T03:43:30.009Z,1007.95
2023-01-11T03:44:30.017Z,1007.92
2023-01-11T03:45:29.990Z,1007.88
2023-01-11T03:46:30.054Z,1007.83
2023-01-11T03:47:30.031Z,1007.83
2023-01-11T03:48:29.959Z,1007.85
2023-01-11T03:49:29.969Z,1007.86
2023-01-11T03:50:29.939Z,1007.89
2023-01-11T03:51:29.952Z,1007.86
2023-01-11T03:52:29.955Z,1007.82
2023-01-11T03:53:29.954Z,1007.85
2023-01-11T03:54:29.894Z,1007.77
2023-01-11T03:55:29.910Z,1007.81
2023-01-11T03:56:29.876Z,1007.81
2023-01-11T03:57:29.860Z,1007.78
2023-01-11T03:58:29.956Z,1007.77
2023-01-11T03:59:29.845Z,1007.78
2023-01-11T04:00:29.904Z,1007.76
2023-01-11T04:01:29.888Z,1007.77
2023-01-11T04:02:29.872Z,1007.77
2023-01-11T04:03:29.818Z,1007.78
2023-01-11T04:04:29.868Z,1007.73
2023-01-11T04:05:29.802Z,1007.72
2023-01-11T04:06:29.853Z,1007.71
2023-01-11T04:07:29.812Z,1007.67
2023-01-11T04:08:29.755Z,1007.68
2023-01-11T04:09:29.738Z,1007.70
2023-01-11T04:10:29.761Z,1007.67
2023-01-11T04:11:29.731Z,1007.70
2023-01-11T04:12:29.730Z,1007.72
2023-01-11T04:13:29.740Z,1007.69
2023-01-11T04:14:29.744Z,1007.69
2023-01-11T04:15:29.669Z,1007.68
2023-01-11T04:16:29.698Z,1007.68
2023-01-11T04:17:29.658Z,1007.65
2023-01-11T04:18:29.687Z,1007.72
2023-01-11T04:19:29.632Z,1007.70
2023-01-11T04:20:29.625Z,1007.68
2023-01-11T04:21:29.629Z,1007.63
2023-01-11T04:22:29.632Z,1007.62
2023-01-11T04:23:29.636Z,1007.63
2023-01-11T04:24:29.605Z,1007.62
2023-01-11T04:25:29.569Z,1007.63
2023-01-11T04:26:29.580Z,1007.63
2023-01-11T04:27:29.585Z,1007.60
2023-01-11T04:28:29.582Z,1007.56
2023-01-11T04:29:29.561Z,1007.58
2023-01-11T04:30:29.528Z,1007.59
2023-01-11T04:31:29.579Z,1007.53
2023-01-11T04:32:29.518Z,1007.54
2023-01-11T04:33:29.488Z,1007.55
2023-01-11T04:34:29.515Z,1007.52
2023-01-11T04:35:29.471Z,1007.55
2023-01-11T04:36:29.475Z,1007.58
2023-01-11T04:37:29.468Z,1007.56
2023-01-11T04:38:29.449Z,1007.56
2023-01-11T04:39:29.429Z,1007.52
2023-01-11T04:40:29.445Z,1007.51
2023-01-11T04:41:29.401Z,1007.46
2023-01-11T04:42:29.404Z,1007.46
2023-01-11T04:43:29.398Z,1007.43
2023-01-11T04:44:29.410Z,1007.39
2023-01-11T04:45:29.399Z,1007.37
2023-01-11T04:46:29.388Z,1007.42
2023-01-11T04:47:29.378Z,1007.29
2023-01-11T04:48:29.336Z,1007.27
2023-01-11T04:49:29.313Z,1007.19
2023-01-11T04:50:29.390Z,1007.17
2023-01-11T04:51:29.298Z,1007.16
2023-01-11T04:52:29.308Z,1007.17
2023-01-11T04:53:29.288Z,1007.14
2023-01-11T04:54:29.269Z,1007.13
2023-01-11T04:55:29.251Z,1007.11
2023-01-11T04:56:29.295Z,1007.09
2023-01-11T04:57:29.243Z,1007.12
2023-01-11T04:58:29.285Z,1007.16
2023-01-11T04:59:29.219Z,1007.18
2023-01-11T05:00:29.207Z,1007.16
2023-01-11T05:01:29.206Z,1007.18
2023-01-11T05:02:29.200Z,1007.22
2023-01-11T05:03:29.181Z,1007.18
2023-01-11T05:04:29.231Z,1007.19
2023-01-11T05:05:29.181Z,1007.15
2023-01-11T05:06:29.314Z,1007.18
2023-01-11T05:07:29.162Z,1007.17
2023-01-11T05:08:29.141Z,1007.22
2023-01-11T05:09:29.175Z,1007.15
2023-01-11T05:10:29.165Z,1007.15
2023-01-11T05:11:29.105Z,1007.13
2023-01-11T05:12:29.194Z,1007.15
2023-01-11T05:13:29.078Z,1007.10
2023-01-11T05:14:29.072Z,1007.07
2023-01-11T05:15:29.068Z,1007.07
2023-01-11T05:16:29.165Z,1007.05
2023-01-11T05:17:29.030Z,1007.08
2023-01-11T05:18:29.042Z,1007.06
2023-01-11T05:19:29.011Z,1007.02
2023-01-11T05:20:29.033Z,1006.93
2023-01-11T05:21:29.005Z,1006.96
2023-01-11T05:22:29.020Z,1006.94
2023-01-11T05:23:29.007Z,1006.91
2023-01-11T05:24:28.977Z,1006.89
2023-01-11T05:25:28.952Z,1006.86
2023-01-11T05:26:29.052Z,1006.90
2023-01-11T05:27:28.933Z,1006.89
2023-01-11T05:28:34.999Z,1006.88
2023-01-11T05:29:28.905Z,1006.89
2023-01-11T05:30:28.908Z,1006.84
2023-01-11T05:31:31.531Z,1006.85
2023-01-11T05:32:28.898Z,1006.83
2023-01-11T05:33:28.897Z,1006.81
2023-01-11T05:34:28.905Z,1006.78
2023-01-11T05:35:28.836Z,1006.77
2023-01-11T05:36:28.846Z,1006.73
2023-01-11T05:37:28.826Z,1006.72
2023-01-11T05:38:28.862Z,1006.71
2023-01-11T05:39:28.814Z,1006.74
2023-01-11T05:40:28.804Z,1006.74
2023-01-11T05:41:28.809Z,1006.74
2023-01-11T05:42:28.833Z,1006.78
2023-01-11T05:43:28.863Z,1006.75
2023-01-11T05:44:28.822Z,1006.72
2023-01-11T05:45:28.913Z,1006.69
2023-01-11T05:46:28.739Z,1006.68
2023-01-11T05:47:28.732Z,1006.68
2023-01-11T05:48:28.858Z,1006.74
2023-01-11T05:49:28.725Z,1006.70
2023-01-11T05:50:28.715Z,1006.73
2023-01-11T05:51:28.682Z,1006.68
2023-01-11T05:52:28.793Z,1006.67
2023-01-11T05:53:28.732Z,1006.65
2023-01-11T05:54:28.656Z,1006.64
2023-01-11T05:55:28.634Z,1006.57
2023-01-11T05:56:28.628Z,1006.60
2023-01-11T05:57:28.611Z,1006.64
2023-01-11T05:58:28.638Z,1006.60
2023-01-11T05:59:31.160Z,1006.62
2023-01-11T06:00:28.614Z,1006.60
2023-01-11T06:01:28.576Z,1006.61
2023-01-11T06:02:28.713Z,1006.60
2023-01-11T06:03:28.569Z,1006.61
2023-01-11T06:04:28.563Z,1006.57
2023-01-11T06:05:28.577Z,1006.60
2023-01-11T06:06:28.529Z,1006.57
2023-01-11T06:07:28.519Z,1006.58
2023-01-11T06:08:28.556Z,1006.56
2023-01-11T06:09:28.497Z,1006.55
2023-01-11T06:10:28.531Z,1006.53
2023-01-11T06:11:28.473Z,1006.55
2023-01-11T06:12:28.471Z,1006.50
2023-01-11T06:13:28.499Z,1006.50
2023-01-11T06:14:28.439Z,1006.47
2023-01-11T06:15:28.440Z,1006.46
2023-01-11T06:16:28.439Z,1006.45
2023-01-11T06:17:28.421Z,1006.44
2023-01-11T06:18:28.565Z,1006.44
2023-01-11T06:19:28.384Z,1006.42
2023-01-11T06:20:28.377Z,1006.44
2023-01-11T06:21:28.396Z,1006.44
2023-01-11T06:22:28.482Z,1006.38
2023-01-11T06:23:28.358Z,1006.39
2023-01-11T06:24:28.335Z,1006.35
2023-01-11T06:25:28.320Z,1006.36
2023-01-11T06:26:28.331Z,1006.39
2023-01-11T06:27:28.317Z,1006.39
2023-01-11T06:28:28.318Z,1006.40
2023-01-11T06:29:28.316Z,1006.37
2023-01-11T06:30:28.404Z,1006.40
2023-01-11T06:31:28.277Z,1006.41
2023-01-11T06:32:28.288Z,1006.42
2023-01-11T06:33:28.271Z,1006.47
2023-01-11T06:34:28.251Z,1006.44
2023-01-11T06:35:28.252Z,1006.42
2023-01-11T06:36:29.762Z,1006.37
2023-01-11T06:37:28.193Z,1006.40
2023-01-11T06:38:28.219Z,1006.36
2023-01-11T06:39:28.182Z,1006.32
2023-01-11T06:40:28.145Z,1006.34
2023-01-11T06:41:28.147Z,1006.30
2023-01-11T06:42:28.156Z,1006.37
2023-01-11T06:43:28.163Z,1006.35
2023-01-11T06:44:28.140Z,1006.32
2023-01-11T06:45:28.117Z,1006.29
2023-01-11T06:46:29.203Z,1006.27
2023-01-11T06:47:28.054Z,1006.34
2023-01-11T06:48:28.063Z,1006.26
2023-01-11T06:49:28.066Z,1006.28
2023-01-11T06:50:28.002Z,1006.28
2023-01-11T06:51:28.012Z,1006.26
2023-01-11T06:52:27.990Z,1006.24
2023-01-11T06:53:29.045Z,1006.30
2023-01-11T06:54:27.997Z,1006.31
2023-01-11T06:55:27.956Z,1006.35
2023-01-11T06:56:27.939Z,1006.36
2023-01-11T06:57:27.932Z,1006.37
2023-01-11T06:58:27.950Z,1006.36
2023-01-11T06:59:27.925Z,1006.36
2023-01-11T07:00:27.905Z,1006.37
2023-01-11T07:01:27.966Z,1006.39
2023-01-11T07:02:27.895Z,1006.42
2023-01-11T07:03:27.968Z,1006.39
2023-01-11T07:04:27.858Z,1006.39
2023-01-11T07:05:27.876Z,1006.43
2023-01-11T07:06:27.832Z,1006.44
2023-01-11T07:07:27.862Z,1006.49
2023-01-11T07:08:27.856Z,1006.49
2023-01-11T07:09:27.824Z,1006.50
2023-01-11T07:10:27.809Z,1006.51
2023-01-11T07:11:27.799Z,1006.56
2023-01-11T07:12:27.806Z,1006.53
2023-01-11T07:13:27.795Z,1006.59
2023-01-11T07:14:27.754Z,1006.59
2023-01-11T07:15:27.754Z,1006.63
2023-01-11T07:16:27.764Z,1006.61
2023-01-11T07:17:27.739Z,1006.62
2023-01-11T07:18:27.905Z,1006.62
2023-01-11T07:19:27.713Z,1006.60
2023-01-11T07:20:27.704Z,1006.59
2023-01-11T07:21:27.696Z,1006.61
2023-01-11T07:22:27.713Z,1006.60
2023-01-11T07:23:27.706Z,1006.59
2023-01-11T07:24:27.660Z,1006.63
2023-01-11T07:25:27.648Z,1006.65
2023-01-11T07:26:27.795Z,1006.66
2023-01-11T07:27:27.674Z,1006.66
2023-01-11T07:28:27.631Z,1006.66
2023-01-11T07:29:27.632Z,1006.67
2023-01-11T07:30:27.613Z,1006.65
2023-01-11T07:31:27.711Z,1006.63
2023-01-11T07:32:27.589Z,1006.66
2023-01-11T07:33:28.159Z,1006.67
2023-01-11T07:34:27.587Z,1006.64
2023-01-11T07:35:29.010Z,1006.64
2023-01-11T07:36:27.576Z,1006.63
2023-01-11T07:37:29.086Z,1006.63
2023-01-11T07:38:27.521Z,1006.61
2023-01-11T07:39:42.245Z,1006.61
2023-01-11T07:40:27.509Z,1006.61
2023-01-11T07:41:27.477Z,1006.59
2023-01-11T07:42:27.500Z,1006.63
2023-01-11T07:43:27.491Z,1006.59
2023-01-11T07:44:27.442Z,1006.59
2023-01-11T07:45:37.381Z,1006.57
2023-01-11T07:46:27.511Z,1006.60
2023-01-11T07:47:27.416Z,1006.58
2023-01-11T07:48:27.528Z,1006.57
2023-01-11T07:49:27.392Z,1006.54
2023-01-11T07:50:27.385Z,1006.53
2023-01-11T07:51:27.384Z,1006.56
2023-01-11T07:52:27.399Z,1006.58
2023-01-11T07:53:27.375Z,1006.58
2023-01-11T07:54:27.333Z,1006.54
2023-01-11T07:55:27.330Z,1006.54
2023-01-11T07:56:27.335Z,1006.48
2023-01-11T07:57:27.316Z,1006.51
2023-01-11T07:58:27.378Z,1006.51
2023-01-11T07:59:27.305Z,1006.51
2023-01-11T08:00:27.277Z,1006.53
2023-01-11T08:01:27.280Z,1006.55
2023-01-11T08:02:27.481Z,1006.53
2023-01-11T08:03:27.405Z,1006.56
2023-01-11T08:04:27.245Z,1006.58
2023-01-11T08:05:27.267Z,1006.58
2023-01-11T08:06:27.215Z,1006.57
2023-01-11T08:07:27.206Z,1006.53
2023-01-11T08:08:27.272Z,1006.52
2023-01-11T08:09:27.205Z,1006.46
2023-01-11T08:10:27.216Z,1006.47
2023-01-11T08:11:27.162Z,1006.46
2023-01-11T08:12:27.178Z,1006.47
2023-01-11T08:13:27.171Z,1006.48
2023-01-11T08:14:27.136Z,1006.44
2023-01-11T08:15:27.125Z,1006.44
2023-01-11T08:16:27.113Z,1006.42
2023-01-11T08:17:27.104Z,1006.45
2023-01-11T08:18:27.164Z,1006.44
2023-01-11T08:19:27.101Z,1006.46
2023-01-11T08:20:27.106Z,1006.42
2023-01-11T08:21:27.060Z,1006.40
2023-01-11T08:22:27.051Z,1006.45
2023-01-11T08:23:27.088Z,1006.38
2023-01-11T08:24:27.022Z,1006.37
2023-01-11T08:25:27.015Z,1006.39
2023-01-11T08:26:27.023Z,1006.39
2023-01-11T08:27:26.996Z,1006.37
2023-01-11T08:28:27.004Z,1006.36
2023-01-11T08:29:27.002Z,1006.33
2023-01-11T08:30:26.956Z,1006.37
2023-01-11T08:31:27.054Z,1006.31
2023-01-11T08:32:26.990Z,1006.34
2023-01-11T08:33:26.936Z,1006.35
2023-01-11T08:34:26.943Z,1006.28
2023-01-11T08:35:26.939Z,1006.35
2023-01-11T08:36:26.915Z,1006.35
2023-01-11T08:37:26.892Z,1006.34
2023-01-11T08:38:26.915Z,1006.33
2023-01-11T08:39:26.894Z,1006.27
2023-01-11T08:40:26.920Z,1006.29
2023-01-11T08:41:26.853Z,1006.27
2023-01-11T08:42:26.846Z,1006.29
2023-01-11T08:43:26.834Z,1006.25
2023-01-11T08:44:33.970Z,1006.26
2023-01-11T08:45:26.833Z,1006.24
2023-01-11T08:46:26.844Z,1006.27
2023-01-11T08:47:26.807Z,1006.25
2023-01-11T08:48:26.773Z,1006.26
2023-01-11T08:49:26.818Z,1006.25
2023-01-11T08:50:26.795Z,1006.26
2023-01-11T08:51:26.777Z,1006.26
2023-01-11T08:52:26.748Z,1006.29
2023-01-11T08:53:26.724Z,1006.30
2023-01-11T08:54:26.788Z,1006.29
2023-01-11T08:55:26.726Z,1006.30
2023-01-11T08:56:26.707Z,1006.33
2023-01-11T08:57:26.691Z,1006.33
2023-01-11T08:58:26.682Z,1006.30
2023-01-11T08:59:26.702Z,1006.33
2023-01-11T09:00:26.671Z,1006.28
2023-01-11T09:01:26.676Z,1006.29
2023-01-11T09:02:26.689Z,1006.29
2023-01-11T09:03:26.623Z,1006.23
2023-01-11T09:04:26.659Z,1006.28
2023-01-11T09:05:26.606Z,1006.29
2023-01-11T09:06:26.601Z,1006.23
2023-01-11T09:07:26.596Z,1006.22
2023-01-11T09:08:26.579Z,1006.20
2023-01-11T09:09:26.582Z,1006.25
2023-01-11T09:10:26.570Z,1006.23
2023-01-11T09:11:26.539Z,1006.23
2023-01-11T09:12:26.526Z,1006.24
2023-01-11T09:13:26.536Z,1006.26
2023-01-11T09:14:26.547Z,1006.22
2023-01-11T09:15:26.530Z,1006.30
2023-01-11T09:16:26.487Z,1006.25
2023-01-11T09:17:26.506Z,1006.22
2023-01-11T09:18:26.458Z,1006.20
2023-01-11T09:19:26.506Z,1006.19
2023-01-11T09:20:26.532Z,1006.16
2023-01-11T09:21:26.452Z,1006.12
2023-01-11T09:22:26.424Z,1006.15
2023-01-11T09:23:26.429Z,1006.11
2023-01-11T09:24:26.448Z,1006.06
2023-01-11T09:25:26.398Z,1006.08
2023-01-11T09:26:26.373Z,1006.09
2023-01-11T09:27:26.392Z,1006.07
2023-01-11T09:28:26.358Z,1006.08
2023-01-11T09:29:26.385Z,1006.09
2023-01-11T09:30:26.433Z,1006.05
2023-01-11T09:31:26.379Z,1006.06
2023-01-11T09:32:26.312Z,1006.06
2023-01-11T09:33:26.326Z,1006.03
2023-01-11T09:34:26.327Z,1006.06
2023-01-11T09:35:26.299Z,1005.99
2023-01-11T09:36:26.313Z,1006.04
2023-01-11T09:37:26.268Z,1006.02
2023-01-11T09:38:26.249Z,1006.02
2023-01-11T09:39:26.280Z,1006.01
2023-01-11T09:40:26.328Z,1006.03
2023-01-11T09:41:26.246Z,1006.07
2023-01-11T09:42:26.382Z,1006.03
2023-01-11T09:43:26.225Z,1006.05
2023-01-11T09:44:26.226Z,1006.02
2023-01-11T09:45:26.199Z,1006.01
2023-01-11T09:46:26.197Z,1006.00
2023-01-11T09:47:26.153Z,1005.95
2023-01-11T09:48:26.165Z,1005.97
2023-01-11T09:49:26.143Z,1006.02
2023-01-11T09:50:26.142Z,1005.91
2023-01-11T09:51:26.172Z,1005.95
2023-01-11T09:52:26.117Z,1005.96
2023-01-11T09:53:26.105Z,1005.92
2023-01-11T09:54:26.099Z,1005.96
2023-01-11T09:55:26.083Z,1006.01
2023-01-11T09:56:26.073Z,1005.96
2023-01-11T09:57:26.065Z,1005.94
2023-01-11T09:58:26.048Z,1005.97
2023-01-11T09:59:26.039Z,1005.95
2023-01-11T10:00:26.155Z,1005.94
2023-01-11T10:01:26.035Z,1005.93
2023-01-11T10:02:26.011Z,1005.96
2023-01-11T10:03:26.024Z,1005.93
2023-01-11T10:04:26.034Z,1005.93
2023-01-11T10:05:25.994Z,1005.91
2023-01-11T10:06:25.984Z,1005.91
2023-01-11T10:07:25.964Z,1005.91
2023-01-11T10:18:23.291Z,1005.86
2023-01-11T10:18:58.513Z,1005.78
2023-01-11T10:19:35.028Z,1005.72
2023-01-11T10:19:49.096Z,1005.72
2023-01-11T10:20:49.026Z,1005.65
2023-01-11T10:21:49.031Z,1005.64
2023-01-11T10:22:49.042Z,1005.64
2023-01-11T10:23:48.973Z,1005.65
2023-01-11T10:24:48.973Z,1005.59
2023-01-11T10:25:48.953Z,1005.60
2023-01-11T10:26:49.053Z,1005.58
2023-01-11T10:27:48.914Z,1005.56
2023-01-11T10:28:48.939Z,1005.58
2023-01-11T10:29:48.954Z,1005.56
2023-01-11T10:30:48.901Z,1005.56
2023-01-11T10:31:49.036Z,1005.54
2023-01-11T10:32:48.892Z,1005.54
2023-01-11T10:33:48.862Z,1005.52
2023-01-11T10:34:48.856Z,1005.52
2023-01-11T10:35:48.864Z,1005.56
2023-01-11T10:36:48.853Z,1005.56
2023-01-11T10:37:48.835Z,1005.52
2023-01-11T10:38:48.903Z,1005.51
2023-01-11T10:39:48.811Z,1005.50
2023-01-11T10:40:48.812Z,1005.52
2023-01-11T10:41:48.852Z,1005.50
2023-01-11T10:42:48.767Z,1005.53
2023-01-11T10:43:48.758Z,1005.50
2023-01-11T10:44:48.785Z,1005.51
2023-01-11T10:45:48.826Z,1005.53
2023-01-11T10:46:48.752Z,1005.54
2023-01-11T10:47:48.805Z,1005.54
2023-01-11T10:48:48.716Z,1005.54
2023-01-11T10:49:48.702Z,1005.52
2023-01-11T10:50:48.716Z,1005.53
2023-01-11T10:51:48.738Z,1005.51
2023-01-11T10:52:48.659Z,1005.53
2023-01-11T10:53:48.654Z,1005.51
2023-01-11T10:54:50.140Z,1005.58
2023-01-11T10:55:48.662Z,1005.47
2023-01-11T10:57:02.967Z,1005.44
2023-01-11T10:58:00.027Z,1005.44
2023-01-11T10:58:48.648Z,1005.41
2023-01-11T10:59:48.594Z,1005.41
2023-01-11T11:00:48.696Z,1005.37
2023-01-11T11:01:48.614Z,1005.38
2023-01-11T11:02:48.649Z,1005.33
2023-01-11T11:03:48.536Z,1005.30
2023-01-11T11:04:48.552Z,1005.34
2023-01-11T11:05:48.580Z,1005.32
2023-01-11T11:06:48.534Z,1005.32
2023-01-11T11:07:48.507Z,1005.29
2023-01-11T11:08:48.518Z,1005.28
2023-01-11T11:09:48.484Z,1005.23
2023-01-11T11:10:48.550Z,1005.23
2023-01-11T11:11:48.472Z,1005.19
2023-01-11T11:12:48.485Z,1005.18
2023-01-11T11:13:48.467Z,1005.19
2023-01-11T11:14:48.452Z,1005.18
2023-01-11T11:15:48.456Z,1005.15
2023-01-11T11:16:48.453Z,1005.15
2023-01-11T11:17:48.425Z,1005.13
2023-01-11T11:18:48.407Z,1005.10
2023-01-11T11:19:48.395Z,1005.12
2023-01-11T11:20:48.386Z,1005.09
2023-01-11T11:21:48.374Z,1005.08
2023-01-11T11:22:48.371Z,1005.09
2023-01-11T11:23:48.338Z,1005.06
2023-01-11T11:24:48.357Z,1005.06
2023-01-11T11:25:48.336Z,1005.09
2023-01-11T11:26:48.360Z,1005.02
2023-01-11T11:27:48.337Z,1005.04
2023-01-11T11:28:48.278Z,1005.00
2023-01-11T11:29:48.282Z,1005.08
2023-01-11T11:30:48.262Z,1005.06
2023-01-11T11:31:48.421Z,1005.01
2023-01-11T11:32:48.255Z,1004.99
2023-01-11T11:33:48.232Z,1004.97
2023-01-11T11:34:48.237Z,1005.00
2023-01-11T11:35:48.208Z,1005.01
2023-01-11T11:36:48.216Z,1005.00
2023-01-11T11:37:48.197Z,1004.98
2023-01-11T11:38:48.201Z,1005.00
2023-01-11T11:39:48.169Z,1004.96
2023-01-11T11:40:48.186Z,1004.95
2023-01-11T11:41:48.179Z,1004.95
2023-01-11T11:42:48.149Z,1004.94
2023-01-11T11:43:48.150Z,1004.91
2023-01-11T11:44:48.133Z,1004.92
2023-01-11T11:45:48.154Z,1004.92
2023-01-11T11:46:48.138Z,1004.87
2023-01-11T11:47:48.103Z,1004.89
2023-01-11T11:48:48.093Z,1004.92
2023-01-11T11:49:48.069Z,1004.91
2023-01-11T11:50:48.066Z,1004.90
2023-01-11T11:51:48.127Z,1004.88
2023-01-11T11:52:48.027Z,1004.87
2023-01-11T11:53:48.067Z,1004.87
2023-01-11T11:54:48.030Z,1004.88
2023-01-11T11:55:48.029Z,1004.88
2023-01-11T11:56:48.002Z,1004.89
2023-01-11T11:57:48.010Z,1004.86
2023-01-11T11:58:47.979Z,1004.88
2023-01-11T11:59:47.968Z,1004.82
2023-01-11T12:00:47.957Z,1004.82
2023-01-11T12:01:48.057Z,1004.78
2023-01-11T12:02:47.946Z,1004.79
2023-01-11T12:03:47.929Z,1004.75
2023-01-11T12:04:47.960Z,1004.74
2023-01-11T12:05:47.932Z,1004.71
2023-01-11T12:06:49.243Z,1004.68
2023-01-11T12:07:54.690Z,1004.69
2023-01-11T12:08:47.871Z,1004.71
2023-01-11T12:09:47.868Z,1004.69
2023-01-11T12:10:47.897Z,1004.66
2023-01-11T12:11:47.865Z,1004.66
2023-01-11T12:12:47.842Z,1004.64
2023-01-11T12:13:47.819Z,1004.58